sensor_id;sensor_type;location;lat;lon;timestamp;P1;P2;P0
73825;PMS5003;64145;55.060;73.168;2023-11-21T00:01:51;2.50;2.50;0.00
73825;PMS5003;64145;55.060;73.168;2023-11-21T00:04:17;2.00;2.00;1.00
73825;PMS5003;64145;55.060;73.168;2023-11-21T00:06:42;0.00;0.00;0.00
73825;PMS5003;64145;55.060;73.168;2023-11-21T00:09:08;0.00;0.00;0.00
73825;PMS5003;64145;55.060;73.168;2023-11-21T00:11:35;0.00;0.00;0.00
73825;PMS5003;64145;55.060;73.168;2023-11-21T00:14:00;0.00;0.00;0.00
73825;PMS5003;64145;55.060;73.168;2023-11-21T00:16:26;1.00;1.00;0.00
73825;PMS5003;64145;55.060;73.168;2023-11-21T00:18:51;1.00;1.00;0.00
73825;PMS5003;64145;55.060;73.168;2023-11-21T00:21:17;3.00;3.00;2.00
73825;PMS5003;64145;55.060;73.168;2023-11-21T00:23:43;0.00;0.00;0.00
73825;PMS5003;64145;55.060;73.168;2023-11-21T00:26:08;0.00;0.00;0.00
73825;PMS5003;64145;55.060;73.168;2023-11-21T00:28:36;2.00;2.00;0.00
73825;PMS5003;64145;55.060;73.168;2023-11-21T00:31:02;4.00;4.00;2.00
73825;PMS5003;64145;55.060;73.168;2023-11-21T00:33:27;3.00;3.00;1.00
73825;PMS5003;64145;55.060;73.168;2023-11-21T00:35:53;4.00;3.50;1.00
73825;PMS5003;64145;55.060;73.168;2023-11-21T00:38:18;2.00;1.00;0.00
73825;PMS5003;64145;55.060;73.168;2023-11-21T00:40:45;1.00;1.00;0.00
73825;PMS5003;64145;55.060;73.168;2023-11-21T00:43:11;1.00;1.00;0.00
73825;PMS5003;64145;55.060;73.168;2023-11-21T00:45:36;1.00;1.00;0.00
73825;PMS5003;64145;55.060;73.168;2023-11-21T00:48:02;3.00;2.67;1.00
73825;PMS5003;64145;55.060;73.168;2023-11-21T00:50:30;0.00;0.00;0.00
73825;PMS5003;64145;55.060;73.168;2023-11-21T00:52:55;0.00;0.00;0.00
73825;PMS5003;64145;55.060;73.168;2023-11-21T00:55:21;0.00;0.00;0.00
73825;PMS5003;64145;55.060;73.168;2023-11-21T00:57:47;1.00;1.00;1.00
73825;PMS5003;64145;55.060;73.168;2023-11-21T01:00:13;0.50;0.50;0.00
73825;PMS5003;64145;55.060;73.168;2023-11-21T01:02:42;1.00;0.00;0.00
73825;PMS5003;64145;55.060;73.168;2023-11-21T01:05:09;1.00;0.50;0.00
73825;PMS5003;64145;55.060;73.168;2023-11-21T01:07:35;3.00;3.00;1.00
73825;PMS5003;64145;55.060;73.168;2023-11-21T01:10:02;0.50;0.00;0.00
73825;PMS5003;64145;55.060;73.168;2023-11-21T01:12:28;0.00;0.00;0.00
73825;PMS5003;64145;55.060;73.168;2023-11-21T01:14:53;0.00;0.00;0.00
73825;PMS5003;64145;55.060;73.168;2023-11-21T01:17:19;0.00;0.00;0.00
73825;PMS5003;64145;55.060;73.168;2023-11-21T01:19:45;3.00;2.00;2.00
73825;PMS5003;64145;55.060;73.168;2023-11-21T01:22:10;1.50;0.50;0.00
73825;PMS5003;64145;55.060;73.168;2023-11-21T01:24:37;0.00;0.00;0.00
73825;PMS5003;64145;55.060;73.168;2023-11-21T01:27:03;3.50;2.50;1.00
73825;PMS5003;64145;55.060;73.168;2023-11-21T01:29:29;4.00;3.00;1.00
73825;PMS5003;64145;55.060;73.168;2023-11-21T01:31:55;4.00;2.00;1.00
73825;PMS5003;64145;55.060;73.168;2023-11-21T01:34:22;5.00;3.00;0.00
73825;PMS5003;64145;55.060;73.168;2023-11-21T01:36:48;7.00;5.00;2.00
73825;PMS5003;64145;55.060;73.168;2023-11-21T01:39:15;7.00;6.00;2.50
73825;PMS5003;64145;55.060;73.168;2023-11-21T01:41:49;4.50;3.50;1.00
73825;PMS5003;64145;55.060;73.168;2023-11-21T01:44:15;1.00;0.00;0.00
73825;PMS5003;64145;55.060;73.168;2023-11-21T01:46:42;0.00;0.00;0.00
73825;PMS5003;64145;55.060;73.168;2023-11-21T01:49:08;1.00;1.00;0.50
73825;PMS5003;64145;55.060;73.168;2023-11-21T01:51:35;0.00;0.00;0.00
73825;PMS5003;64145;55.060;73.168;2023-11-21T01:54:02;1.50;1.50;0.50
73825;PMS5003;64145;55.060;73.168;2023-11-21T01:56:30;5.00;4.00;1.00
73825;PMS5003;64145;55.060;73.168;2023-11-21T01:58:57;5.00;4.50;1.00
73825;PMS5003;64145;55.060;73.168;2023-11-21T02:01:22;4.00;3.00;1.00
73825;PMS5003;64145;55.060;73.168;2023-11-21T02:03:48;1.00;1.00;0.00
73825;PMS5003;64145;55.060;73.168;2023-11-21T02:06:14;1.00;0.50;0.00
73825;PMS5003;64145;55.060;73.168;2023-11-21T02:08:39;2.50;1.50;1.50
73825;PMS5003;64145;55.060;73.168;2023-11-21T02:11:09;5.00;3.50;3.00
73825;PMS5003;64145;55.060;73.168;2023-11-21T02:13:38;2.00;1.00;0.00
73825;PMS5003;64145;55.060;73.168;2023-11-21T02:16:04;2.50;2.00;0.00
73825;PMS5003;64145;55.060;73.168;2023-11-21T02:18:31;0.00;0.00;0.00
73825;PMS5003;64145;55.060;73.168;2023-11-21T02:20:56;0.00;0.00;0.00
73825;PMS5003;64145;55.060;73.168;2023-11-21T02:23:22;2.00;2.00;1.00
73825;PMS5003;64145;55.060;73.168;2023-11-21T02:25:48;2.00;2.00;0.00
73825;PMS5003;64145;55.060;73.168;2023-11-21T02:28:14;2.33;2.33;2.00
73825;PMS5003;64145;55.060;73.168;2023-11-21T02:30:41;2.50;2.50;2.00
73825;PMS5003;64145;55.060;73.168;2023-11-21T02:33:08;2.50;2.00;0.00
73825;PMS5003;64145;55.060;73.168;2023-11-21T02:35:33;1.50;1.00;0.00
73825;PMS5003;64145;55.060;73.168;2023-11-21T02:38:02;6.00;6.00;4.00
73825;PMS5003;64145;55.060;73.168;2023-11-21T02:40:28;1.00;1.00;0.00
73825;PMS5003;64145;55.060;73.168;2023-11-21T02:42:53;1.50;1.50;0.00
73825;PMS5003;64145;55.060;73.168;2023-11-21T02:45:19;0.00;0.00;0.00
73825;PMS5003;64145;55.060;73.168;2023-11-21T02:47:46;0.00;0.00;0.00
73825;PMS5003;64145;55.060;73.168;2023-11-21T02:50:12;0.00;0.00;0.00
73825;PMS5003;64145;55.060;73.168;2023-11-21T02:52:38;3.50;3.50;3.00
73825;PMS5003;64145;55.060;73.168;2023-11-21T02:55:06;1.00;1.00;0.00
73825;PMS5003;64145;55.060;73.168;2023-11-21T02:57:35;1.00;1.00;0.50
73825;PMS5003;64145;55.060;73.168;2023-11-21T03:00:00;1.00;1.00;0.00
73825;PMS5003;64145;55.060;73.168;2023-11-21T03:02:26;4.00;4.00;1.50
73825;PMS5003;64145;55.060;73.168;2023-11-21T03:04:52;0.00;0.00;0.00
73825;PMS5003;64145;55.060;73.168;2023-11-21T03:07:17;3.00;2.50;1.00
73825;PMS5003;64145;55.060;73.168;2023-11-21T03:09:47;1.00;1.00;1.00
73825;PMS5003;64145;55.060;73.168;2023-11-21T03:12:12;4.00;4.00;2.00
73825;PMS5003;64145;55.060;73.168;2023-11-21T03:14:45;1.00;1.00;0.00
73825;PMS5003;64145;55.060;73.168;2023-11-21T03:17:11;0.00;0.00;0.00
73825;PMS5003;64145;55.060;73.168;2023-11-21T03:19:37;2.00;1.50;1.00
73825;PMS5003;64145;55.060;73.168;2023-11-21T03:22:03;2.50;2.50;2.00
73825;PMS5003;64145;55.060;73.168;2023-11-21T03:24:29;5.00;5.00;3.00
73825;PMS5003;64145;55.060;73.168;2023-11-21T03:26:55;5.00;5.00;1.00
73825;PMS5003;64145;55.060;73.168;2023-11-21T03:29:20;3.00;2.50;0.00
73825;PMS5003;64145;55.060;73.168;2023-11-21T03:31:46;1.00;1.00;1.00
73825;PMS5003;64145;55.060;73.168;2023-11-21T03:34:15;6.00;5.50;3.00
73825;PMS5003;64145;55.060;73.168;2023-11-21T03:36:41;3.00;3.00;1.00
73825;PMS5003;64145;55.060;73.168;2023-11-21T03:39:07;2.00;2.00;0.00
73825;PMS5003;64145;55.060;73.168;2023-11-21T03:41:32;1.00;1.00;0.00
73825;PMS5003;64145;55.060;73.168;2023-11-21T03:43:59;0.00;0.00;0.00
73825;PMS5003;64145;55.060;73.168;2023-11-21T03:46:24;0.00;0.00;0.00
73825;PMS5003;64145;55.060;73.168;2023-11-21T03:48:50;2.00;2.00;0.00
73825;PMS5003;64145;55.060;73.168;2023-11-21T03:51:16;3.00;3.00;1.00
73825;PMS5003;64145;55.060;73.168;2023-11-21T03:53:42;5.00;4.00;2.00
73825;PMS5003;64145;55.060;73.168;2023-11-21T03:56:07;7.00;6.00;3.00
73825;PMS5003;64145;55.060;73.168;2023-11-21T03:58:33;8.00;5.50;3.00
73825;PMS5003;64145;55.060;73.168;2023-11-21T04:00:59;7.00;5.00;3.00
73825;PMS5003;64145;55.060;73.168;2023-11-21T04:03:25;4.00;3.00;1.00
73825;PMS5003;64145;55.060;73.168;2023-11-21T04:05:50;7.00;6.50;3.00
73825;PMS5003;64145;55.060;73.168;2023-11-21T04:08:16;10.50;9.50;5.00
73825;PMS5003;64145;55.060;73.168;2023-11-21T04:10:41;6.00;5.50;2.00
73825;PMS5003;64145;55.060;73.168;2023-11-21T04:13:07;5.00;3.00;0.00
73825;PMS5003;64145;55.060;73.168;2023-11-21T04:15:33;6.00;5.00;2.00
73825;PMS5003;64145;55.060;73.168;2023-11-21T04:18:00;6.00;5.00;3.00
73825;PMS5003;64145;55.060;73.168;2023-11-21T04:20:29;1.00;1.00;1.00
73825;PMS5003;64145;55.060;73.168;2023-11-21T04:22:54;0.00;0.00;0.00
73825;PMS5003;64145;55.060;73.168;2023-11-21T04:25:20;1.00;0.00;0.00
73825;PMS5003;64145;55.060;73.168;2023-11-21T04:27:45;0.00;0.00;0.00
73825;PMS5003;64145;55.060;73.168;2023-11-21T04:30:12;2.00;2.00;0.00
73825;PMS5003;64145;55.060;73.168;2023-11-21T04:32:37;0.00;0.00;0.00
73825;PMS5003;64145;55.060;73.168;2023-11-21T04:35:04;2.50;2.00;0.00
73825;PMS5003;64145;55.060;73.168;2023-11-21T04:37:30;0.00;0.00;0.00
73825;PMS5003;64145;55.060;73.168;2023-11-21T04:39:58;1.00;0.00;0.00
73825;PMS5003;64145;55.060;73.168;2023-11-21T04:42:24;1.00;1.00;0.00
73825;PMS5003;64145;55.060;73.168;2023-11-21T04:44:49;1.50;1.00;0.00
73825;PMS5003;64145;55.060;73.168;2023-11-21T04:47:15;0.00;0.00;0.00
73825;PMS5003;64145;55.060;73.168;2023-11-21T04:49:44;0.00;0.00;0.00
73825;PMS5003;64145;55.060;73.168;2023-11-21T04:52:12;0.00;0.00;0.00
73825;PMS5003;64145;55.060;73.168;2023-11-21T04:54:37;1.00;1.00;0.00
73825;PMS5003;64145;55.060;73.168;2023-11-21T04:57:05;0.00;0.00;0.00
73825;PMS5003;64145;55.060;73.168;2023-11-21T04:59:32;0.00;0.00;0.00
73825;PMS5003;64145;55.060;73.168;2023-11-21T05:01:58;0.00;0.00;0.00
73825;PMS5003;64145;55.060;73.168;2023-11-21T05:04:25;1.00;1.00;1.00
73825;PMS5003;64145;55.060;73.168;2023-11-21T05:06:51;2.00;2.00;1.00
73825;PMS5003;64145;55.060;73.168;2023-11-21T05:09:16;2.00;1.00;0.00
73825;PMS5003;64145;55.060;73.168;2023-11-21T05:11:45;3.00;3.00;1.00
73825;PMS5003;64145;55.060;73.168;2023-11-21T05:14:11;0.00;0.00;0.00
73825;PMS5003;64145;55.060;73.168;2023-11-21T05:16:39;3.00;3.00;1.00
73825;PMS5003;64145;55.060;73.168;2023-11-21T05:19:04;6.50;5.50;2.00
73825;PMS5003;64145;55.060;73.168;2023-11-21T05:21:34;2.67;1.33;0.33
73825;PMS5003;64145;55.060;73.168;2023-11-21T05:24:03;3.00;3.00;1.00
73825;PMS5003;64145;55.060;73.168;2023-11-21T05:26:29;5.00;5.00;2.00
73825;PMS5003;64145;55.060;73.168;2023-11-21T05:28:54;7.00;6.00;2.00
73825;PMS5003;64145;55.060;73.168;2023-11-21T05:31:20;8.00;7.50;3.00
73825;PMS5003;64145;55.060;73.168;2023-11-21T05:33:45;2.00;2.00;0.00
73825;PMS5003;64145;55.060;73.168;2023-11-21T05:36:11;3.00;3.00;1.00
73825;PMS5003;64145;55.060;73.168;2023-11-21T05:38:37;3.00;3.00;1.00
73825;PMS5003;64145;55.060;73.168;2023-11-21T05:41:03;6.00;5.00;2.00
73825;PMS5003;64145;55.060;73.168;2023-11-21T05:43:29;2.00;2.00;0.50
73825;PMS5003;64145;55.060;73.168;2023-11-21T05:45:56;5.00;5.00;3.00
73825;PMS5003;64145;55.060;73.168;2023-11-21T05:48:21;5.00;5.00;2.00
73825;PMS5003;64145;55.060;73.168;2023-11-21T05:50:47;9.00;7.00;3.00
73825;PMS5003;64145;55.060;73.168;2023-11-21T05:53:15;6.00;5.50;1.50
73825;PMS5003;64145;55.060;73.168;2023-11-21T05:55:41;6.00;5.00;2.00
73825;PMS5003;64145;55.060;73.168;2023-11-21T05:58:06;2.00;1.00;0.00
73825;PMS5003;64145;55.060;73.168;2023-11-21T06:00:32;0.00;0.00;0.00
73825;PMS5003;64145;55.060;73.168;2023-11-21T06:02:58;1.00;0.50;0.00
73825;PMS5003;64145;55.060;73.168;2023-11-21T06:05:24;0.00;0.00;0.00
73825;PMS5003;64145;55.060;73.168;2023-11-21T06:07:50;2.00;2.00;1.00
73825;PMS5003;64145;55.060;73.168;2023-11-21T06:10:17;2.00;2.00;0.00
73825;PMS5003;64145;55.060;73.168;2023-11-21T06:12:44;3.00;2.00;0.00
73825;PMS5003;64145;55.060;73.168;2023-11-21T06:15:10;4.00;4.00;2.00
73825;PMS5003;64145;55.060;73.168;2023-11-21T06:17:38;4.00;3.00;3.00
73825;PMS5003;64145;55.060;73.168;2023-11-21T06:20:08;3.00;2.00;1.00
73825;PMS5003;64145;55.060;73.168;2023-11-21T06:22:43;3.00;3.00;1.00
73825;PMS5003;64145;55.060;73.168;2023-11-21T06:25:10;3.00;3.00;0.00
73825;PMS5003;64145;55.060;73.168;2023-11-21T06:27:37;2.50;2.00;0.00
73825;PMS5003;64145;55.060;73.168;2023-11-21T06:30:03;1.00;1.00;0.00
73825;PMS5003;64145;55.060;73.168;2023-11-21T06:32:29;0.00;0.00;0.00
73825;PMS5003;64145;55.060;73.168;2023-11-21T06:34:58;1.00;1.00;0.00
73825;PMS5003;64145;55.060;73.168;2023-11-21T06:37:26;3.50;3.00;2.00
73825;PMS5003;64145;55.060;73.168;2023-11-21T06:39:56;3.00;2.00;1.00
73825;PMS5003;64145;55.060;73.168;2023-11-21T06:42:23;1.00;0.50;0.00
73825;PMS5003;64145;55.060;73.168;2023-11-21T06:44:49;3.00;2.00;0.00
73825;PMS5003;64145;55.060;73.168;2023-11-21T06:47:17;0.00;0.00;0.00
73825;PMS5003;64145;55.060;73.168;2023-11-21T06:49:45;0.50;0.50;0.00
73825;PMS5003;64145;55.060;73.168;2023-11-21T06:52:13;0.00;0.00;0.00
73825;PMS5003;64145;55.060;73.168;2023-11-21T06:54:42;0.00;0.00;0.00
73825;PMS5003;64145;55.060;73.168;2023-11-21T06:57:10;1.00;1.00;0.00
73825;PMS5003;64145;55.060;73.168;2023-11-21T06:59:38;0.00;0.00;0.00
73825;PMS5003;64145;55.060;73.168;2023-11-21T07:02:03;3.00;3.00;1.00
73825;PMS5003;64145;55.060;73.168;2023-11-21T07:04:32;1.00;1.00;0.00
73825;PMS5003;64145;55.060;73.168;2023-11-21T07:07:06;0.00;0.00;0.00
73825;PMS5003;64145;55.060;73.168;2023-11-21T07:09:32;0.00;0.00;0.00
73825;PMS5003;64145;55.060;73.168;2023-11-21T07:11:57;3.00;3.00;1.00
73825;PMS5003;64145;55.060;73.168;2023-11-21T07:14:23;1.00;1.00;0.00
73825;PMS5003;64145;55.060;73.168;2023-11-21T07:16:49;0.00;0.00;0.00
73825;PMS5003;64145;55.060;73.168;2023-11-21T07:19:14;2.00;2.00;1.00
73825;PMS5003;64145;55.060;73.168;2023-11-21T07:21:40;2.00;2.00;1.00
73825;PMS5003;64145;55.060;73.168;2023-11-21T07:24:06;1.00;0.00;0.00
73825;PMS5003;64145;55.060;73.168;2023-11-21T07:26:32;0.00;0.00;0.00
73825;PMS5003;64145;55.060;73.168;2023-11-21T07:29:03;0.00;0.00;0.00
73825;PMS5003;64145;55.060;73.168;2023-11-21T07:31:29;1.00;1.00;0.00
73825;PMS5003;64145;55.060;73.168;2023-11-21T07:33:55;0.00;0.00;0.00
73825;PMS5003;64145;55.060;73.168;2023-11-21T07:36:23;1.00;1.00;1.00
73825;PMS5003;64145;55.060;73.168;2023-11-21T07:38:49;0.00;0.00;0.00
73825;PMS5003;64145;55.060;73.168;2023-11-21T07:41:15;0.00;0.00;0.00
73825;PMS5003;64145;55.060;73.168;2023-11-21T07:43:44;4.33;3.33;1.00
73825;PMS5003;64145;55.060;73.168;2023-11-21T07:46:10;0.33;0.00;0.00
73825;PMS5003;64145;55.060;73.168;2023-11-21T07:48:38;0.00;0.00;0.00
73825;PMS5003;64145;55.060;73.168;2023-11-21T07:51:03;13.50;11.50;6.00
73825;PMS5003;64145;55.060;73.168;2023-11-21T07:53:29;27.00;22.00;13.00
73825;PMS5003;64145;55.060;73.168;2023-11-21T07:58:30;16.50;14.00;7.50
73825;PMS5003;64145;55.060;73.168;2023-11-21T08:00:56;22.33;18.33;12.00
73825;PMS5003;64145;55.060;73.168;2023-11-21T08:03:21;12.50;10.50;6.00
73825;PMS5003;64145;55.060;73.168;2023-11-21T08:05:47;2.00;1.00;0.00
73825;PMS5003;64145;55.060;73.168;2023-11-21T08:08:12;11.00;10.00;5.67
73825;PMS5003;64145;55.060;73.168;2023-11-21T08:10:38;9.00;9.00;5.50
73825;PMS5003;64145;55.060;73.168;2023-11-21T08:13:07;4.00;4.00;1.00
73825;PMS5003;64145;55.060;73.168;2023-11-21T08:15:34;0.00;0.00;0.00
73825;PMS5003;64145;55.060;73.168;2023-11-21T08:18:02;0.00;0.00;0.00
73825;PMS5003;64145;55.060;73.168;2023-11-21T08:20:27;0.00;0.00;0.00
73825;PMS5003;64145;55.060;73.168;2023-11-21T08:22:53;2.50;2.00;0.50
73825;PMS5003;64145;55.060;73.168;2023-11-21T08:25:22;1.00;1.00;0.00
73825;PMS5003;64145;55.060;73.168;2023-11-21T08:27:47;0.00;0.00;0.00
73825;PMS5003;64145;55.060;73.168;2023-11-21T08:30:16;1.00;1.00;1.00
73825;PMS5003;64145;55.060;73.168;2023-11-21T08:32:44;0.00;0.00;0.00
73825;PMS5003;64145;55.060;73.168;2023-11-21T08:35:10;0.00;0.00;0.00
73825;PMS5003;64145;55.060;73.168;2023-11-21T08:37:36;0.00;0.00;0.00
73825;PMS5003;64145;55.060;73.168;2023-11-21T08:40:04;0.00;0.00;0.00
73825;PMS5003;64145;55.060;73.168;2023-11-21T08:42:35;1.00;1.00;1.00
73825;PMS5003;64145;55.060;73.168;2023-11-21T08:45:03;2.00;2.00;0.00
73825;PMS5003;64145;55.060;73.168;2023-11-21T08:47:29;2.00;2.00;0.33
73825;PMS5003;64145;55.060;73.168;2023-11-21T08:49:55;3.00;2.00;1.00
73825;PMS5003;64145;55.060;73.168;2023-11-21T08:52:21;0.50;0.00;0.00
73825;PMS5003;64145;55.060;73.168;2023-11-21T08:54:52;0.00;0.00;0.00
73825;PMS5003;64145;55.060;73.168;2023-11-21T08:57:26;0.00;0.00;0.00
73825;PMS5003;64145;55.060;73.168;2023-11-21T08:59:52;0.00;0.00;0.00
73825;PMS5003;64145;55.060;73.168;2023-11-21T09:02:25;0.00;0.00;0.00
73825;PMS5003;64145;55.060;73.168;2023-11-21T09:04:51;0.00;0.00;0.00
73825;PMS5003;64145;55.060;73.168;2023-11-21T09:07:18;0.67;0.67;0.00
73825;PMS5003;64145;55.060;73.168;2023-11-21T09:09:48;0.00;0.00;0.00
73825;PMS5003;64145;55.060;73.168;2023-11-21T09:12:14;0.00;0.00;0.00
73825;PMS5003;64145;55.060;73.168;2023-11-21T09:14:41;0.00;0.00;0.00
73825;PMS5003;64145;55.060;73.168;2023-11-21T09:17:07;0.00;0.00;0.00
73825;PMS5003;64145;55.060;73.168;2023-11-21T09:19:39;0.00;0.00;0.00
73825;PMS5003;64145;55.060;73.168;2023-11-21T09:22:05;2.00;2.00;0.00
73825;PMS5003;64145;55.060;73.168;2023-11-21T09:24:31;2.00;1.50;0.50
73825;PMS5003;64145;55.060;73.168;2023-11-21T09:26:57;2.50;2.50;0.50
73825;PMS5003;64145;55.060;73.168;2023-11-21T09:29:23;3.00;2.00;1.00
73825;PMS5003;64145;55.060;73.168;2023-11-21T09:31:49;0.00;0.00;0.00
73825;PMS5003;64145;55.060;73.168;2023-11-21T09:34:17;2.00;1.50;0.00
73825;PMS5003;64145;55.060;73.168;2023-11-21T09:36:46;1.00;1.00;0.00
73825;PMS5003;64145;55.060;73.168;2023-11-21T09:39:13;3.00;3.00;0.50
73825;PMS5003;64145;55.060;73.168;2023-11-21T09:44:10;4.00;1.00;0.00
73825;PMS5003;64145;55.060;73.168;2023-11-21T09:46:36;2.33;1.00;0.67
73825;PMS5003;64145;55.060;73.168;2023-11-21T09:49:04;0.00;0.00;0.00
73825;PMS5003;64145;55.060;73.168;2023-11-21T09:51:36;0.67;0.67;0.00
73825;PMS5003;64145;55.060;73.168;2023-11-21T09:54:03;2.50;2.50;1.00
73825;PMS5003;64145;55.060;73.168;2023-11-21T09:56:34;3.00;3.00;1.00
73825;PMS5003;64145;55.060;73.168;2023-11-21T09:59:01;3.00;2.00;0.00
73825;PMS5003;64145;55.060;73.168;2023-11-21T10:01:31;1.00;1.00;0.00
73825;PMS5003;64145;55.060;73.168;2023-11-21T10:03:57;1.00;1.00;0.00
73825;PMS5003;64145;55.060;73.168;2023-11-21T10:06:24;1.50;1.00;0.00
73825;PMS5003;64145;55.060;73.168;2023-11-21T10:08:52;2.00;2.00;0.00
73825;PMS5003;64145;55.060;73.168;2023-11-21T10:11:19;0.50;0.00;0.00
73825;PMS5003;64145;55.060;73.168;2023-11-21T10:13:45;2.00;2.00;0.00
73825;PMS5003;64145;55.060;73.168;2023-11-21T10:16:12;0.00;0.00;0.00
73825;PMS5003;64145;55.060;73.168;2023-11-21T10:18:40;0.00;0.00;0.00
73825;PMS5003;64145;55.060;73.168;2023-11-21T10:21:06;3.00;3.00;0.33
73825;PMS5003;64145;55.060;73.168;2023-11-21T10:23:32;2.00;2.00;0.33
73825;PMS5003;64145;55.060;73.168;2023-11-21T10:25:57;2.00;2.00;0.00
73825;PMS5003;64145;55.060;73.168;2023-11-21T10:28:25;5.33;5.00;2.00
73825;PMS5003;64145;55.060;73.168;2023-11-21T10:30:50;4.50;3.00;1.00
73825;PMS5003;64145;55.060;73.168;2023-11-21T10:33:16;5.00;3.00;1.00
73825;PMS5003;64145;55.060;73.168;2023-11-21T10:35:42;6.00;5.00;2.00
73825;PMS5003;64145;55.060;73.168;2023-11-21T10:38:12;1.33;1.00;0.67
73825;PMS5003;64145;55.060;73.168;2023-11-21T10:40:43;6.00;5.33;3.00
73825;PMS5003;64145;55.060;73.168;2023-11-21T10:43:11;4.00;2.00;1.00
73825;PMS5003;64145;55.060;73.168;2023-11-21T10:45:40;3.00;3.00;2.00
73825;PMS5003;64145;55.060;73.168;2023-11-21T10:48:06;5.00;3.00;2.00
73825;PMS5003;64145;55.060;73.168;2023-11-21T10:50:42;2.50;2.50;1.50
73825;PMS5003;64145;55.060;73.168;2023-11-21T10:53:07;5.50;5.50;2.00
73825;PMS5003;64145;55.060;73.168;2023-11-21T10:55:33;0.00;0.00;0.00
73825;PMS5003;64145;55.060;73.168;2023-11-21T10:58:03;1.50;1.00;0.00
73825;PMS5003;64145;55.060;73.168;2023-11-21T11:00:31;0.00;0.00;0.00
73825;PMS5003;64145;55.060;73.168;2023-11-21T11:02:57;1.00;1.00;0.00
73825;PMS5003;64145;55.060;73.168;2023-11-21T11:05:25;1.00;1.00;0.00
73825;PMS5003;64145;55.060;73.168;2023-11-21T11:07:52;3.00;3.00;1.00
73825;PMS5003;64145;55.060;73.168;2023-11-21T11:10:35;3.00;2.00;1.00
73825;PMS5003;64145;55.060;73.168;2023-11-21T11:13:01;2.00;2.00;1.00
73825;PMS5003;64145;55.060;73.168;2023-11-21T11:15:28;9.50;8.00;4.50
73825;PMS5003;64145;55.060;73.168;2023-11-21T11:17:54;5.00;3.00;1.00
73825;PMS5003;64145;55.060;73.168;2023-11-21T11:20:23;3.00;3.00;2.00
73825;PMS5003;64145;55.060;73.168;2023-11-21T11:25:35;8.00;7.00;5.00
73825;PMS5003;64145;55.060;73.168;2023-11-21T11:28:07;8.00;7.00;3.50
73825;PMS5003;64145;55.060;73.168;2023-11-21T11:38:21;2.00;1.50;0.00
73825;PMS5003;64145;55.060;73.168;2023-11-21T11:40:47;4.00;4.00;1.00
73825;PMS5003;64145;55.060;73.168;2023-11-21T11:43:13;4.00;3.00;1.00
73825;PMS5003;64145;55.060;73.168;2023-11-21T11:45:39;4.00;3.50;1.50
73825;PMS5003;64145;55.060;73.168;2023-11-21T11:48:08;4.00;3.00;1.00
73825;PMS5003;64145;55.060;73.168;2023-11-21T11:50:41;6.00;5.00;2.00
73825;PMS5003;64145;55.060;73.168;2023-11-21T11:53:13;0.50;0.50;0.00
73825;PMS5003;64145;55.060;73.168;2023-11-21T11:55:39;3.00;2.00;0.00
73825;PMS5003;64145;55.060;73.168;2023-11-21T11:58:08;8.00;7.00;2.00
73825;PMS5003;64145;55.060;73.168;2023-11-21T12:00:34;2.00;1.33;0.00
73825;PMS5003;64145;55.060;73.168;2023-11-21T12:03:03;3.00;3.00;1.00
73825;PMS5003;64145;55.060;73.168;2023-11-21T12:05:29;3.00;3.00;2.00
73825;PMS5003;64145;55.060;73.168;2023-11-21T12:08:08;5.00;5.00;2.67
73825;PMS5003;64145;55.060;73.168;2023-11-21T12:10:34;5.00;5.00;2.00
73825;PMS5003;64145;55.060;73.168;2023-11-21T12:13:16;4.00;4.00;1.50
73825;PMS5003;64145;55.060;73.168;2023-11-21T12:15:55;2.00;2.00;1.00
73825;PMS5003;64145;55.060;73.168;2023-11-21T12:18:20;0.00;0.00;0.00
73825;PMS5003;64145;55.060;73.168;2023-11-21T12:21:01;1.00;1.00;0.00
73825;PMS5003;64145;55.060;73.168;2023-11-21T12:23:27;2.00;2.00;0.00
73825;PMS5003;64145;55.060;73.168;2023-11-21T12:26:01;0.50;0.00;0.00
73825;PMS5003;64145;55.060;73.168;2023-11-21T12:28:27;2.00;2.00;1.00
73825;PMS5003;64145;55.060;73.168;2023-11-21T12:31:06;6.00;5.50;3.00
73825;PMS5003;64145;55.060;73.168;2023-11-21T12:33:35;4.33;3.00;1.00
73825;PMS5003;64145;55.060;73.168;2023-11-21T12:36:00;3.00;1.50;1.00
73825;PMS5003;64145;55.060;73.168;2023-11-21T12:38:37;7.67;7.33;3.33
73825;PMS5003;64145;55.060;73.168;2023-11-21T12:41:03;3.00;2.00;0.00
73825;PMS5003;64145;55.060;73.168;2023-11-21T12:43:29;1.00;1.00;0.00
73825;PMS5003;64145;55.060;73.168;2023-11-21T12:46:05;3.00;2.50;0.00
73825;PMS5003;64145;55.060;73.168;2023-11-21T12:48:31;2.50;2.00;0.00
73825;PMS5003;64145;55.060;73.168;2023-11-21T12:50:57;1.00;1.00;0.00
73825;PMS5003;64145;55.060;73.168;2023-11-21T12:53:25;2.00;2.00;1.00
73825;PMS5003;64145;55.060;73.168;2023-11-21T12:55:51;4.33;3.33;1.67
73825;PMS5003;64145;55.060;73.168;2023-11-21T12:58:17;4.00;3.50;2.00
73825;PMS5003;64145;55.060;73.168;2023-11-21T13:00:46;1.00;0.50;0.00
73825;PMS5003;64145;55.060;73.168;2023-11-21T13:03:31;1.50;1.00;0.00
73825;PMS5003;64145;55.060;73.168;2023-11-21T13:05:58;4.50;4.50;1.00
73825;PMS5003;64145;55.060;73.168;2023-11-21T13:08:24;2.33;2.00;0.00
73825;PMS5003;64145;55.060;73.168;2023-11-21T13:11:02;0.00;0.00;0.00
73825;PMS5003;64145;55.060;73.168;2023-11-21T13:13:44;0.00;0.00;0.00
73825;PMS5003;64145;55.060;73.168;2023-11-21T13:16:21;1.50;1.00;0.50
73825;PMS5003;64145;55.060;73.168;2023-11-21T13:18:49;1.00;1.00;0.00
73825;PMS5003;64145;55.060;73.168;2023-11-21T13:21:14;2.50;2.00;1.00
73825;PMS5003;64145;55.060;73.168;2023-11-21T13:23:42;0.00;0.00;0.00
73825;PMS5003;64145;55.060;73.168;2023-11-21T13:26:08;0.00;0.00;0.00
73825;PMS5003;64145;55.060;73.168;2023-11-21T13:28:35;0.00;0.00;0.00
73825;PMS5003;64145;55.060;73.168;2023-11-21T13:31:01;0.00;0.00;0.00
73825;PMS5003;64145;55.060;73.168;2023-11-21T13:33:46;0.00;0.00;0.00
73825;PMS5003;64145;55.060;73.168;2023-11-21T13:36:16;3.00;3.00;2.00
73825;PMS5003;64145;55.060;73.168;2023-11-21T13:38:48;5.00;4.00;2.00
73825;PMS5003;64145;55.060;73.168;2023-11-21T13:41:31;31.00;24.67;15.67
73825;PMS5003;64145;55.060;73.168;2023-11-21T13:43:56;26.33;20.67;12.67
73825;PMS5003;64145;55.060;73.168;2023-11-21T13:46:40;19.00;15.67;8.33
73825;PMS5003;64145;55.060;73.168;2023-11-21T13:49:06;16.00;14.00;8.00
73825;PMS5003;64145;55.060;73.168;2023-11-21T13:51:35;8.00;7.00;3.00
73825;PMS5003;64145;55.060;73.168;2023-11-21T13:54:09;2.00;1.00;0.00
73825;PMS5003;64145;55.060;73.168;2023-11-21T13:56:36;3.50;3.00;2.00
73825;PMS5003;64145;55.060;73.168;2023-11-21T13:59:02;1.00;1.00;0.00
73825;PMS5003;64145;55.060;73.168;2023-11-21T14:01:38;0.50;0.50;0.00
73825;PMS5003;64145;55.060;73.168;2023-11-21T14:04:19;1.00;1.00;0.00
73825;PMS5003;64145;55.060;73.168;2023-11-21T14:06:59;0.00;0.00;0.00
73825;PMS5003;64145;55.060;73.168;2023-11-21T14:09:35;1.00;1.00;0.00
73825;PMS5003;64145;55.060;73.168;2023-11-21T14:12:09;0.00;0.00;0.00
73825;PMS5003;64145;55.060;73.168;2023-11-21T14:14:37;0.00;0.00;0.00
73825;PMS5003;64145;55.060;73.168;2023-11-21T14:17:04;0.00;0.00;0.00
73825;PMS5003;64145;55.060;73.168;2023-11-21T14:19:32;0.00;0.00;0.00
73825;PMS5003;64145;55.060;73.168;2023-11-21T14:21:59;0.00;0.00;0.00
73825;PMS5003;64145;55.060;73.168;2023-11-21T14:24:24;0.00;0.00;0.00
73825;PMS5003;64145;55.060;73.168;2023-11-21T14:26:51;0.00;0.00;0.00